McCallum, Mississippi
Current Conditions -  °F | °C
As of 9:53 AM on Thursday 27 Nov 2014 (Local Time) from KHBG Reporting Station
Clear Clear  
Wind Chill: 50°   Ceiling: Unl
Heat Index: 50°   Visibility: 10mi
Dew Point: 31°   Wind: 10mph
Humidity: 48%   Direction: 350°N
Pressure: 30.47"   Gusts: 21mph
Location:  31.1996°N, 89.2694°W
Report Text: KHBG 271553Z AUTO 35009G18KT 10SM CLR 10/M01 A3047 RMK AO2 SLP315 T01001006
Loading
Personal Weather Stations






























Interactive Weather Map New forecast layout! Learn more

10-Day Weather Forecast

Advertisements
Track Severe Weather on mobile